createdAt,value
2023-01-27T00:01:09.367Z,98415.78
2023-01-27T00:03:37.570Z,98421.88
2023-01-27T00:06:06.680Z,98414.38
2023-01-27T00:08:34.853Z,98412.63
2023-01-27T00:11:20.618Z,98410.53
2023-01-27T00:13:48.899Z,98412.84
2023-01-27T00:16:18.553Z,98411.44
2023-01-27T00:18:46.770Z,98412.94
2023-01-27T00:21:32.489Z,98420.94
2023-01-27T00:24:18.054Z,98411.84
2023-01-27T00:26:46.300Z,98410.91
2023-01-27T00:29:14.592Z,98407.41
2023-01-27T00:32:01.451Z,98414.66
2023-01-27T00:34:31.512Z,98416.34
2023-01-27T00:36:59.619Z,98422.47
2023-01-27T00:39:27.727Z,98416.94
2023-01-27T00:41:56.010Z,98410.13
2023-01-27T00:44:24.087Z,98407.75
2023-01-27T00:46:53.671Z,98412.31
2023-01-27T00:49:21.986Z,98415.00
2023-01-27T00:51:50.142Z,98418.19
2023-01-27T00:54:18.491Z,98408.38
2023-01-27T00:56:47.725Z,98405.00
2023-01-27T00:59:15.902Z,98405.16
2023-01-27T01:01:44.028Z,98401.84
2023-01-27T01:04:14.811Z,98400.00
2023-01-27T01:06:42.957Z,98397.97
2023-01-27T01:09:11.203Z,98393.56
2023-01-27T01:11:39.327Z,98397.63
2023-01-27T01:14:07.499Z,98400.41
2023-01-27T01:16:35.631Z,98401.16
2023-01-27T01:19:03.844Z,98399.50
2023-01-27T01:21:33.529Z,98399.13
2023-01-27T01:24:01.768Z,98400.53
2023-01-27T01:26:30.753Z,98397.63
2023-01-27T01:28:58.931Z,98399.28
2023-01-27T01:31:28.769Z,98391.66
2023-01-27T01:33:56.864Z,98387.81
2023-01-27T01:36:25.083Z,98388.66
2023-01-27T01:38:57.581Z,98387.28
2023-01-27T01:41:26.850Z,98399.34
2023-01-27T01:43:55.407Z,98390.69
2023-01-27T01:46:23.654Z,98392.19
2023-01-27T01:48:55.980Z,98389.44
2023-01-27T01:51:29.952Z,98388.97
2023-01-27T01:54:04.385Z,98388.25
2023-01-27T01:56:38.540Z,98395.44
2023-01-27T01:59:16.705Z,98385.03
2023-01-27T02:01:44.979Z,98392.09
2023-01-27T02:04:16.813Z,98394.19
2023-01-27T02:06:55.011Z,98398.69
2023-01-27T02:09:24.914Z,98384.44
2023-01-27T02:11:53.415Z,98387.00
2023-01-27T02:14:22.099Z,98387.00
2023-01-27T02:16:50.548Z,98387.50
2023-01-27T02:19:26.144Z,98393.50
2023-01-27T02:21:57.686Z,98394.56
2023-01-27T02:24:34.542Z,98395.25
2023-01-27T02:27:04.113Z,98393.47
2023-01-27T02:29:32.293Z,98399.84
2023-01-27T02:32:00.478Z,98393.50
2023-01-27T02:34:33.835Z,98397.13
2023-01-27T02:37:07.077Z,98394.69
2023-01-27T02:39:42.960Z,98401.16
2023-01-27T02:42:15.205Z,98399.16
2023-01-27T02:44:44.244Z,98401.53
2023-01-27T02:47:12.429Z,98394.19
2023-01-27T02:49:40.593Z,98392.22
2023-01-27T02:52:09.959Z,98395.31
2023-01-27T02:54:38.179Z,98396.56
2023-01-27T02:57:06.244Z,98394.91
2023-01-27T02:59:39.921Z,98403.81
2023-01-27T03:02:08.325Z,98400.56
2023-01-27T03:04:38.957Z,98404.06
2023-01-27T03:07:07.263Z,98399.94
2023-01-27T03:09:35.328Z,98389.72
2023-01-27T03:12:21.503Z,98392.84
2023-01-27T03:15:10.312Z,98391.47
2023-01-27T03:17:57.423Z,98398.63
2023-01-27T03:20:25.967Z,98394.72
2023-01-27T03:22:54.034Z,98388.91
2023-01-27T03:25:24.689Z,98387.84
2023-01-27T03:27:56.984Z,98396.94
2023-01-27T03:30:43.555Z,98399.56
2023-01-27T03:33:19.813Z,98391.06
2023-01-27T03:36:20.275Z,98386.47
2023-01-27T03:39:08.860Z,98384.25
2023-01-27T03:41:54.167Z,98381.72
2023-01-27T03:44:41.344Z,98381.34
2023-01-27T03:47:11.352Z,98385.25
2023-01-27T03:49:39.550Z,98387.84
2023-01-27T03:52:07.657Z,98384.56
2023-01-27T03:54:35.782Z,98382.59
2023-01-27T03:57:06.351Z,98382.69
2023-01-27T03:59:36.042Z,98390.91
2023-01-27T04:02:21.665Z,98382.53
2023-01-27T04:05:08.774Z,98389.94
2023-01-27T04:07:37.084Z,98386.84
2023-01-27T04:10:05.725Z,98391.38
2023-01-27T04:12:32.870Z,98392.28
2023-01-27T04:15:00.928Z,98394.78
2023-01-27T04:17:30.785Z,98390.84
2023-01-27T04:20:00.245Z,98388.50
2023-01-27T04:22:28.399Z,98386.72
2023-01-27T04:24:56.639Z,98391.41
2023-01-27T04:27:24.820Z,98395.22
2023-01-27T04:29:52.953Z,98385.88
2023-01-27T04:32:20.975Z,98383.50
2023-01-27T04:34:49.028Z,98388.25
2023-01-27T04:37:18.543Z,98386.88
2023-01-27T04:39:47.457Z,98386.41
2023-01-27T04:42:15.610Z,98391.91
2023-01-27T04:44:43.780Z,98394.72
2023-01-27T04:47:11.831Z,98390.72
2023-01-27T04:49:39.957Z,98387.81
2023-01-27T04:52:08.196Z,98390.03
2023-01-27T04:54:37.793Z,98393.03
2023-01-27T04:57:05.882Z,98384.72
2023-01-27T04:59:33.938Z,98385.63
2023-01-27T05:02:04.697Z,98391.59
2023-01-27T05:04:32.955Z,98395.41
2023-01-27T05:07:01.054Z,98398.69
2023-01-27T05:09:29.105Z,98395.88
2023-01-27T05:11:58.941Z,98399.53
2023-01-27T05:14:27.547Z,98393.84
2023-01-27T05:16:56.724Z,98396.72
2023-01-27T05:19:24.897Z,98400.13
2023-01-27T05:21:53.068Z,98402.66
2023-01-27T05:24:21.212Z,98410.41
2023-01-27T05:26:49.457Z,98402.59
2023-01-27T05:29:18.994Z,98400.59
2023-01-27T05:31:47.319Z,98397.88
2023-01-27T05:34:16.821Z,98401.84
2023-01-27T05:36:44.980Z,98404.38
2023-01-27T05:39:13.307Z,98394.44
2023-01-27T05:41:41.532Z,98403.69
2023-01-27T05:44:13.590Z,98401.13
2023-01-27T05:46:43.540Z,98403.13
2023-01-27T05:49:11.698Z,98400.06
2023-01-27T05:51:41.237Z,98404.28
2023-01-27T05:54:10.458Z,98413.25
2023-01-27T05:56:39.279Z,98418.69
2023-01-27T05:59:08.212Z,98409.34
2023-01-27T06:01:37.641Z,98418.03
2023-01-27T06:04:07.743Z,98422.28
2023-01-27T06:06:36.148Z,98417.19
2023-01-27T06:09:04.808Z,98425.84
2023-01-27T06:11:32.952Z,98429.84
2023-01-27T06:14:01.034Z,98423.63
2023-01-27T06:16:29.289Z,98418.09
2023-01-27T06:18:58.733Z,98428.84
2023-01-27T06:21:28.313Z,98430.44
2023-01-27T06:23:58.313Z,98427.16
2023-01-27T06:26:26.543Z,98425.72
2023-01-27T06:28:56.832Z,98426.88
2023-01-27T06:31:25.232Z,98437.66
2023-01-27T06:33:53.460Z,98438.59
2023-01-27T06:36:23.207Z,98430.59
2023-01-27T06:38:52.893Z,98436.44
2023-01-27T06:41:21.181Z,98435.53
2023-01-27T06:43:49.288Z,98438.28
2023-01-27T06:46:17.445Z,98428.03
2023-01-27T06:48:45.659Z,98444.88
2023-01-27T06:51:13.888Z,98439.38
2023-01-27T06:53:42.814Z,98451.78
2023-01-27T06:56:12.410Z,98449.41
2023-01-27T06:58:40.543Z,98444.03
2023-01-27T07:01:08.980Z,98449.66
2023-01-27T07:03:37.269Z,98451.25
2023-01-27T07:06:05.700Z,98456.69
2023-01-27T07:08:33.788Z,98455.00
2023-01-27T07:11:03.976Z,98456.31
2023-01-27T07:13:33.595Z,98453.22
2023-01-27T07:16:01.739Z,98449.53
2023-01-27T07:18:30.098Z,98453.22
2023-01-27T07:20:58.306Z,98453.13
2023-01-27T07:23:26.447Z,98449.41
2023-01-27T07:25:54.523Z,98453.41
2023-01-27T07:28:22.696Z,98457.47
2023-01-27T07:30:52.321Z,98457.13
2023-01-27T07:33:20.449Z,98459.69
2023-01-27T07:35:50.516Z,98463.84
2023-01-27T07:38:18.764Z,98456.78
2023-01-27T07:40:46.898Z,98461.38
2023-01-27T07:43:15.029Z,98461.91
2023-01-27T07:45:43.327Z,98469.00
2023-01-27T07:48:13.335Z,98457.38
2023-01-27T07:50:42.378Z,98456.50
2023-01-27T07:53:11.656Z,98457.47
2023-01-27T07:55:39.904Z,98461.03
2023-01-27T07:58:08.734Z,98462.88
2023-01-27T08:00:37.328Z,98465.78
2023-01-27T08:03:06.608Z,98464.50
2023-01-27T08:05:38.488Z,98470.81
2023-01-27T08:08:07.140Z,98471.47
2023-01-27T08:10:35.230Z,98478.03
2023-01-27T08:13:03.416Z,98476.97
2023-01-27T08:15:31.653Z,98468.44
2023-01-27T08:18:00.597Z,98479.34
2023-01-27T08:20:29.298Z,98470.22
2023-01-27T08:22:58.932Z,98471.41
2023-01-27T08:25:27.168Z,98475.78
2023-01-27T08:27:57.258Z,98475.53
2023-01-27T08:30:26.482Z,98474.59
2023-01-27T08:33:06.386Z,98479.06
2023-01-27T08:35:44.493Z,98475.88
2023-01-27T08:38:20.581Z,98482.97
2023-01-27T08:40:49.238Z,98487.09
2023-01-27T08:43:18.110Z,98482.91
2023-01-27T08:45:47.124Z,98486.78
2023-01-27T08:48:15.285Z,98482.44
2023-01-27T08:50:44.291Z,98489.94
2023-01-27T08:53:12.433Z,98485.38
2023-01-27T08:55:41.923Z,98491.16
2023-01-27T08:58:10.128Z,98499.50
2023-01-27T09:00:38.309Z,98492.22
2023-01-27T09:03:06.428Z,98496.00
2023-01-27T09:05:36.727Z,98486.34
2023-01-27T09:08:05.821Z,98497.47
2023-01-27T09:10:37.737Z,98496.13
2023-01-27T09:13:07.253Z,98487.53
2023-01-27T09:15:36.739Z,98490.44
2023-01-27T09:18:06.584Z,98491.31
2023-01-27T09:20:37.313Z,98489.44
2023-01-27T09:23:10.555Z,98496.66
2023-01-27T09:25:38.771Z,98493.19
2023-01-27T09:28:16.907Z,98494.66
2023-01-27T09:30:46.438Z,98488.94
2023-01-27T09:33:17.806Z,98496.34
2023-01-27T09:35:49.660Z,98498.38
2023-01-27T09:38:21.597Z,98507.84
2023-01-27T09:41:09.212Z,98501.16
2023-01-27T09:44:04.727Z,98494.47
2023-01-27T09:46:43.360Z,98496.94
2023-01-27T09:49:38.723Z,98499.56
2023-01-27T09:52:25.400Z,98498.66
2023-01-27T09:55:02.520Z,98489.56
2023-01-27T09:57:42.714Z,98491.09
2023-01-27T10:00:27.269Z,98495.84
2023-01-27T10:03:14.832Z,98489.47
2023-01-27T10:05:57.269Z,98497.69
2023-01-27T10:08:41.999Z,98491.13
2023-01-27T10:11:20.618Z,98482.06
2023-01-27T10:14:03.041Z,98479.03
2023-01-27T10:16:45.950Z,98476.78
2023-01-27T10:19:29.187Z,98470.34
2023-01-27T10:22:07.774Z,98467.72
2023-01-27T10:24:47.721Z,98468.97
2023-01-27T10:27:19.003Z,98469.03
2023-01-27T10:29:49.691Z,98460.06
2023-01-27T10:32:28.278Z,98470.38
2023-01-27T10:35:09.948Z,98465.91
2023-01-27T10:37:48.629Z,98467.69
2023-01-27T10:40:26.272Z,98474.69
2023-01-27T10:43:04.356Z,98471.25
2023-01-27T10:45:39.857Z,98474.81
2023-01-27T10:48:34.888Z,98466.88
2023-01-27T10:51:08.769Z,98473.53
2023-01-27T10:53:45.093Z,98468.03
2023-01-27T10:56:19.084Z,98468.44
2023-01-27T10:58:54.535Z,98465.69
2023-01-27T11:01:30.626Z,98472.81
2023-01-27T11:04:04.927Z,98475.63
2023-01-27T11:06:38.608Z,98475.25
2023-01-27T11:09:16.374Z,98478.38
2023-01-27T11:11:45.930Z,98482.09
2023-01-27T11:14:20.316Z,98477.72
2023-01-27T11:16:51.765Z,98480.22
2023-01-27T11:19:36.374Z,98474.84
2023-01-27T11:22:08.712Z,98476.03
2023-01-27T11:24:45.673Z,98470.97
2023-01-27T11:27:22.924Z,98475.72
2023-01-27T11:29:58.460Z,98471.69
2023-01-27T11:32:40.065Z,98473.41
2023-01-27T11:35:13.184Z,98473.78
2023-01-27T11:37:43.228Z,98476.94
2023-01-27T11:40:17.453Z,98470.88
2023-01-27T11:42:46.529Z,98469.88
2023-01-27T11:45:20.231Z,98473.81
2023-01-27T11:47:52.257Z,98477.16
2023-01-27T11:50:24.827Z,98479.66
2023-01-27T11:53:00.446Z,98474.06
2023-01-27T11:55:37.307Z,98474.19
2023-01-27T11:58:14.872Z,98472.56
2023-01-27T12:00:46.621Z,98482.72
2023-01-27T12:03:20.214Z,98481.41
2023-01-27T12:05:55.761Z,98482.78
2023-01-27T12:08:45.901Z,98483.69
2023-01-27T12:11:23.084Z,98487.38
2023-01-27T12:13:53.894Z,98487.84
2023-01-27T12:16:22.693Z,98478.94
2023-01-27T12:18:56.362Z,98489.50
2023-01-27T12:21:37.116Z,98483.94
2023-01-27T12:24:10.727Z,98486.34
2023-01-27T12:26:41.809Z,98480.22
2023-01-27T12:29:19.353Z,98469.75
2023-01-27T12:31:49.976Z,98475.25
2023-01-27T12:34:29.527Z,98479.44
2023-01-27T12:37:00.024Z,98472.81
2023-01-27T12:39:34.377Z,98470.09
2023-01-27T12:42:02.468Z,98474.19
2023-01-27T12:44:42.427Z,98473.50
2023-01-27T12:47:26.225Z,98474.25
2023-01-27T12:50:20.591Z,98475.91
2023-01-27T12:52:56.283Z,98474.00
2023-01-27T12:55:32.169Z,98468.94
2023-01-27T12:58:00.520Z,98464.34
2023-01-27T13:00:29.469Z,98466.53
2023-01-27T13:03:05.452Z,98465.72
2023-01-27T13:05:38.816Z,98465.41
2023-01-27T13:08:16.559Z,98465.22
2023-01-27T13:10:52.364Z,98455.03
2023-01-27T13:13:24.971Z,98462.97
2023-01-27T13:15:56.182Z,98469.59
2023-01-27T13:18:25.144Z,98471.84
2023-01-27T13:20:57.941Z,98464.50
2023-01-27T13:23:31.251Z,98466.13
2023-01-27T13:26:11.464Z,98460.25
2023-01-27T13:28:52.218Z,98466.94
2023-01-27T13:31:26.999Z,98469.16
2023-01-27T13:34:00.962Z,98465.19
2023-01-27T13:36:36.677Z,98474.81
2023-01-27T13:39:15.840Z,98471.09
2023-01-27T13:41:49.933Z,98473.47
2023-01-27T13:44:26.712Z,98478.81
2023-01-27T13:46:58.574Z,98472.59
2023-01-27T13:49:34.452Z,98478.28
2023-01-27T13:52:02.654Z,98487.41
2023-01-27T13:54:32.146Z,98484.38
2023-01-27T13:57:14.518Z,98490.28
2023-01-27T13:59:53.030Z,98488.88
2023-01-27T14:03:07.109Z,98483.63
2023-01-27T14:05:44.904Z,98483.63
2023-01-27T14:08:28.855Z,98492.16
2023-01-27T14:11:13.631Z,98487.88
2023-01-27T14:14:01.226Z,98495.84
2023-01-27T14:16:41.632Z,98496.34
2023-01-27T14:19:21.241Z,98506.34
2023-01-27T14:21:59.020Z,98494.53
2023-01-27T14:24:37.560Z,98502.06
2023-01-27T14:27:15.621Z,98500.41
2023-01-27T14:29:51.871Z,98509.34
2023-01-27T14:32:31.600Z,98498.22
2023-01-27T14:35:17.463Z,98507.38
2023-01-27T14:37:54.470Z,98502.00
2023-01-27T14:40:25.804Z,98507.72
2023-01-27T14:43:09.628Z,98507.78
2023-01-27T14:45:39.814Z,98499.22
2023-01-27T14:48:22.811Z,98498.50
2023-01-27T14:51:00.127Z,98500.72
2023-01-27T14:53:42.244Z,98506.94
2023-01-27T14:56:19.178Z,98511.59
2023-01-27T14:58:56.463Z,98504.88
2023-01-27T15:01:32.781Z,98524.09
2023-01-27T15:04:45.468Z,98520.84
2023-01-27T15:07:20.398Z,98531.72
2023-01-27T15:10:14.256Z,98539.00
2023-01-27T15:13:09.292Z,98541.44
2023-01-27T15:15:57.216Z,98543.28
2023-01-27T15:18:51.808Z,98547.56
2023-01-27T15:21:39.844Z,98546.53
2023-01-27T15:24:28.247Z,98548.81
2023-01-27T15:26:56.776Z,98550.09
2023-01-27T15:29:28.910Z,98555.81
2023-01-27T15:32:28.032Z,98551.50
2023-01-27T15:35:37.878Z,98552.63
2023-01-27T15:38:51.509Z,98545.00
2023-01-27T15:41:20.392Z,98548.69
2023-01-27T15:44:15.360Z,98542.50
2023-01-27T15:46:46.804Z,98537.34
2023-01-27T15:49:21.469Z,98538.28
2023-01-27T15:51:52.536Z,98543.22
2023-01-27T15:54:26.035Z,98547.41
2023-01-27T15:56:55.717Z,98543.00
2023-01-27T15:59:27.116Z,98551.72
2023-01-27T16:02:04.610Z,98549.69
2023-01-27T16:04:34.959Z,98549.44
2023-01-27T16:07:06.193Z,98546.88
2023-01-27T16:09:41.106Z,98552.69
2023-01-27T16:12:32.230Z,98538.75
2023-01-27T16:15:39.064Z,98528.28
2023-01-27T16:18:41.374Z,98534.31
2023-01-27T16:21:33.126Z,98539.16
2023-01-27T16:24:06.730Z,98544.88
2023-01-27T16:26:43.361Z,98547.75
2023-01-27T16:29:26.420Z,98543.72
2023-01-27T16:32:00.504Z,98540.91
2023-01-27T16:34:36.150Z,98551.50
2023-01-27T16:37:18.701Z,98541.97
2023-01-27T16:39:51.427Z,98550.47
2023-01-27T16:42:20.015Z,98550.06
2023-01-27T16:44:51.173Z,98549.97
2023-01-27T16:47:25.305Z,98545.44
2023-01-27T16:49:56.098Z,98559.59
2023-01-27T16:52:41.353Z,98555.00
2023-01-27T16:55:22.212Z,98572.28
2023-01-27T16:57:51.845Z,98563.88
2023-01-27T17:00:23.243Z,98568.03
2023-01-27T17:02:52.702Z,98550.91
2023-01-27T17:05:21.990Z,98564.63
2023-01-27T17:08:14.864Z,98568.81
2023-01-27T17:10:46.204Z,98568.22
2023-01-27T17:13:28.598Z,98581.81
2023-01-27T17:15:58.372Z,98576.47
2023-01-27T17:18:27.253Z,98579.38
2023-01-27T17:20:56.555Z,98579.91
2023-01-27T17:23:33.092Z,98585.72
2023-01-27T17:26:10.791Z,98573.81
2023-01-27T17:28:40.090Z,98583.00
2023-01-27T17:31:10.057Z,98584.78
2023-01-27T17:33:39.021Z,98586.16
2023-01-27T17:36:12.150Z,98583.44
2023-01-27T17:38:47.895Z,98591.91
2023-01-27T17:41:36.042Z,98588.44
2023-01-27T17:44:11.781Z,98583.75
2023-01-27T17:46:40.970Z,98586.31
2023-01-27T17:49:15.507Z,98583.19
2023-01-27T17:51:45.724Z,98579.09
2023-01-27T17:54:25.723Z,98591.66
2023-01-27T17:57:00.982Z,98593.09
2023-01-27T17:59:30.075Z,98599.00
2023-01-27T18:02:03.833Z,98598.56
2023-01-27T18:04:38.307Z,98597.47
2023-01-27T18:07:06.531Z,98601.63
2023-01-27T18:09:36.392Z,98595.44
2023-01-27T18:12:07.246Z,98604.44
2023-01-27T18:14:36.649Z,98599.78
2023-01-27T18:17:07.311Z,98597.28
2023-01-27T18:19:35.527Z,98605.84
2023-01-27T18:22:16.487Z,98604.91
2023-01-27T18:24:52.505Z,98612.59
2023-01-27T18:27:23.236Z,98626.31
2023-01-27T18:29:53.988Z,98623.41
2023-01-27T18:32:24.999Z,98626.59
2023-01-27T18:34:56.176Z,98637.34
2023-01-27T18:37:29.986Z,98628.22
2023-01-27T18:40:00.829Z,98634.22
2023-01-27T18:42:31.533Z,98639.47
2023-01-27T18:44:59.702Z,98643.72
2023-01-27T18:47:30.419Z,98649.38
2023-01-27T18:50:03.104Z,98649.47
2023-01-27T18:52:31.556Z,98646.47
2023-01-27T18:55:03.914Z,98656.34
2023-01-27T18:57:31.993Z,98665.75
2023-01-27T19:00:00.091Z,98659.22
2023-01-27T19:02:28.394Z,98657.31
2023-01-27T19:04:56.500Z,98655.78
2023-01-27T19:07:24.586Z,98663.28
2023-01-27T19:09:52.687Z,98667.38
2023-01-27T19:12:22.215Z,98658.94
2023-01-27T19:14:50.328Z,98663.16
2023-01-27T19:17:24.061Z,98662.19
2023-01-27T19:19:52.343Z,98667.38
2023-01-27T19:22:20.878Z,98663.09
2023-01-27T19:24:50.654Z,98674.94
2023-01-27T19:27:20.320Z,98678.25
2023-01-27T19:29:50.411Z,98678.00
2023-01-27T19:32:18.544Z,98675.78
2023-01-27T19:34:46.558Z,98674.00
2023-01-27T19:37:19.099Z,98673.03
2023-01-27T19:39:49.095Z,98668.28
2023-01-27T19:42:17.639Z,98680.81
2023-01-27T19:44:45.772Z,98672.19
2023-01-27T19:47:15.300Z,98659.88
2023-01-27T19:49:43.586Z,98668.81
2023-01-27T19:52:11.676Z,98665.75
2023-01-27T19:54:39.753Z,98668.88
2023-01-27T19:57:15.885Z,98669.78
2023-01-27T19:59:45.949Z,98680.22
2023-01-27T20:02:15.627Z,98672.91
2023-01-27T20:04:43.804Z,98675.19
2023-01-27T20:07:13.526Z,98685.50
2023-01-27T20:09:41.672Z,98681.97
2023-01-27T20:12:16.257Z,98684.53
2023-01-27T20:14:44.493Z,98690.94
2023-01-27T20:17:12.584Z,98688.47
2023-01-27T20:19:42.436Z,98689.22
2023-01-27T20:22:13.732Z,98685.88
2023-01-27T20:24:41.929Z,98694.88
2023-01-27T20:27:10.932Z,98691.97
2023-01-27T20:29:39.731Z,98693.91
2023-01-27T20:32:09.634Z,98699.97
2023-01-27T20:34:38.821Z,98691.81
2023-01-27T20:37:08.261Z,98693.25
2023-01-27T20:39:36.401Z,98683.69
2023-01-27T20:42:04.713Z,98683.50
2023-01-27T20:44:32.808Z,98693.34
2023-01-27T20:47:00.972Z,98697.44
2023-01-27T20:49:29.131Z,98689.13
2023-01-27T20:51:57.246Z,98689.91
2023-01-27T20:54:26.679Z,98681.19
2023-01-27T20:56:54.842Z,98687.03
2023-01-27T20:59:22.960Z,98698.19
2023-01-27T21:01:51.040Z,98697.66
2023-01-27T21:04:19.247Z,98691.44
2023-01-27T21:06:47.379Z,98686.38
2023-01-27T21:09:15.534Z,98683.00
2023-01-27T21:11:45.009Z,98693.16
2023-01-27T21:14:13.106Z,98683.25
2023-01-27T21:16:41.213Z,98680.94
2023-01-27T21:19:09.710Z,98685.56
2023-01-27T21:21:37.862Z,98681.88
2023-01-27T21:24:07.844Z,98684.06
2023-01-27T21:26:37.296Z,98686.66
2023-01-27T21:29:07.040Z,98681.47
2023-01-27T21:31:35.148Z,98687.66
2023-01-27T21:34:03.409Z,98693.22
2023-01-27T21:36:31.595Z,98688.16
2023-01-27T21:39:01.731Z,98683.69
2023-01-27T21:41:47.161Z,98684.31
2023-01-27T21:44:35.953Z,98691.22
2023-01-27T21:47:04.902Z,98684.44
2023-01-27T21:49:56.137Z,98687.78
2023-01-27T21:52:24.830Z,98690.19
2023-01-27T21:54:53.030Z,98685.09
2023-01-27T21:57:21.171Z,98686.31
2023-01-27T21:59:50.725Z,98685.78
2023-01-27T22:02:19.201Z,98688.09
2023-01-27T22:04:47.828Z,98682.28
2023-01-27T22:07:17.701Z,98690.09
2023-01-27T22:09:46.171Z,98676.81
2023-01-27T22:12:17.689Z,98687.53
2023-01-27T22:14:45.997Z,98679.47
2023-01-27T22:17:15.536Z,98679.66
2023-01-27T22:19:43.631Z,98682.22
2023-01-27T22:22:14.050Z,98680.75
2023-01-27T22:24:42.439Z,98670.22
2023-01-27T22:27:10.480Z,98682.50
2023-01-27T22:29:38.562Z,98677.63
2023-01-27T22:32:07.136Z,98685.41
2023-01-27T22:34:36.739Z,98684.13
2023-01-27T22:37:04.866Z,98675.53
2023-01-27T22:39:32.954Z,98676.53
2023-01-27T22:42:01.060Z,98683.38
2023-01-27T22:44:29.157Z,98681.47
2023-01-27T22:46:57.263Z,98678.44
2023-01-27T22:49:25.403Z,98672.13
2023-01-27T22:51:54.928Z,98679.56
2023-01-27T22:54:23.000Z,98674.78
2023-01-27T22:56:51.178Z,98669.81
2023-01-27T22:59:19.227Z,98672.81
2023-01-27T23:01:47.310Z,98671.69
2023-01-27T23:04:15.819Z,98666.00
2023-01-27T23:06:43.993Z,98676.41
2023-01-27T23:09:13.956Z,98677.41
2023-01-27T23:11:42.031Z,98676.16
2023-01-27T23:14:10.431Z,98665.38
2023-01-27T23:16:38.642Z,98669.06
2023-01-27T23:19:06.952Z,98670.47
2023-01-27T23:21:35.077Z,98666.41
2023-01-27T23:24:03.575Z,98669.72
2023-01-27T23:26:33.309Z,98669.91
2023-01-27T23:29:01.473Z,98664.47
2023-01-27T23:31:29.724Z,98664.16
2023-01-27T23:33:57.897Z,98658.38
2023-01-27T23:36:26.325Z,98662.44
2023-01-27T23:38:54.415Z,98659.44
2023-01-27T23:41:23.009Z,98658.31
2023-01-27T23:43:56.567Z,98663.00
2023-01-27T23:46:25.530Z,98650.31
2023-01-27T23:48:54.931Z,98641.53
2023-01-27T23:51:23.991Z,98643.28
2023-01-27T23:53:52.350Z,98653.16
2023-01-27T23:56:21.718Z,98653.72
2023-01-27T23:58:49.785Z,98656.38
